Time;durP1;ratioP1;P1;durP2;ratioP2;P2;SDS_P1;SDS_P2;PMS_P1;PMS_P2;Temp;Humidity;BMP_temperature;BMP_pressure;BME280_temperature;BME280_humidity;BME280_pressure;Samples;Min_cycle;Max_cycle;Signal;HPM_P1;HPM_P2
2022/01/06 00:00:57;;;;;;;5.72;2.83;;;13.40;60.00;;;;;;5033757;28;20081;-72
2022/01/06 00:03:25;;;;;;;5.32;2.83;;;;;;;;;;5033564;28;20053;-72
2022/01/06 00:05:51;;;;;;;6.30;2.80;;;13.80;66.00;;;;;;5033660;28;20115;-72
2022/01/06 00:08:18;;;;;;;5.90;2.70;;;;;;;;;;5034010;28;20053;-72
2022/01/06 00:10:47;;;;;;;5.85;2.80;;;13.40;65.70;;;;;;5033563;28;20084;-72
2022/01/06 00:13:17;;;;;;;6.03;2.65;;;13.50;65.60;;;;;;5041798;28;20107;-72
2022/01/06 00:16:01;;;;;;;5.65;2.50;;;13.40;65.90;;;;;;5033235;28;20043;-72
2022/01/06 00:23:02;;;;;;;5.03;2.78;;;13.30;65.90;;;;;;5033640;28;20050;-72
2022/01/06 00:24:06;;;;;;;5.18;2.80;;;13.20;65.80;;;;;;5049807;28;20475;-72
2022/01/06 00:26:33;;;;;;;4.97;2.30;;;13.40;62.70;;;;;;5033376;28;20085;-72
2022/01/06 00:29:00;;;;;;;4.22;2.38;;;13.50;65.60;;;;;;5052588;28;20132;-72
2022/01/06 00:31:28;;;;;;;4.80;2.40;;;13.30;65.80;;;;;;5052981;28;20132;-72
2022/01/06 00:33:55;;;;;;;4.35;2.40;;;13.40;64.30;;;;;;5053185;28;20148;-72
2022/01/06 00:36:21;;;;;;;4.45;2.47;;;13.40;62.40;;;;;;5052651;28;20156;-72
2022/01/06 00:38:48;;;;;;;5.30;2.10;;;13.40;65.60;;;;;;5052647;28;20137;-72
2022/01/06 00:41:15;;;;;;;5.00;2.33;;;;;;;;;;5049692;28;20068;-72
2022/01/06 00:43:42;;;;;;;5.65;2.40;;;13.40;65.60;;;;;;5044511;28;20141;-72
2022/01/06 00:46:09;;;;;;;5.25;2.63;;;13.30;65.80;;;;;;5052240;28;20466;-72
2022/01/06 00:48:37;;;;;;;4.65;2.10;;;13.40;58.10;;;;;;5052722;28;20132;-71
2022/01/06 00:51:04;;;;;;;5.03;2.42;;;;;;;;;;5052633;28;20048;-72
2022/01/06 00:53:30;;;;;;;4.97;2.20;;;13.30;65.70;;;;;;5052738;28;20136;-72
2022/01/06 00:55:57;;;;;;;3.92;2.15;;;;;;;;;;5047404;28;20502;-72
2022/01/06 00:58:25;;;;;;;3.45;1.92;;;;;;;;;;5032712;28;20469;-71
2022/01/06 01:00:52;;;;;;;4.68;2.28;;;;;;;;;;5032362;28;20056;-72
2022/01/06 01:03:19;;;;;;;5.72;2.40;;;13.20;65.60;;;;;;5032406;28;20128;-72
2022/01/06 01:05:49;;;;;;;4.82;2.53;;;13.20;60.00;;;;;;5032438;28;20049;-72
2022/01/06 01:08:16;;;;;;;4.22;1.98;;;;;;;;;;5032579;28;20722;-72
2022/01/06 01:10:43;;;;;;;3.45;1.90;;;13.00;65.60;;;;;;5032609;28;20136;-72
2022/01/06 01:13:12;;;;;;;4.05;2.25;;;;;;;;;;5033344;28;20045;-72
2022/01/06 01:15:45;;;;;;;5.30;2.30;;;13.20;65.50;;;;;;5032228;28;20053;-72
2022/01/06 01:18:13;;;;;;;3.78;1.95;;;13.40;65.00;;;;;;5032677;28;20068;-72
2022/01/06 01:20:40;;;;;;;3.97;1.85;;;;;;;;;;5032434;28;20060;-72
2022/01/06 01:23:08;;;;;;;4.78;2.17;;;13.20;65.70;;;;;;5033258;28;20132;-72
2022/01/06 01:25:35;;;;;;;4.18;1.92;;;13.10;65.40;;;;;;5033116;28;20477;-72
2022/01/06 01:28:04;;;;;;;5.72;2.00;;;;;;;;;;5031786;28;20435;-71
2022/01/06 01:30:38;;;;;;;4.90;2.03;;;13.20;65.60;;;;;;5044676;28;20053;-72
2022/01/06 01:33:13;;;;;;;3.60;1.60;;;13.40;65.70;;;;;;5033748;28;20103;-72
2022/01/06 01:35:40;;;;;;;4.57;2.13;;;13.20;65.60;;;;;;5031626;28;20655;-72
2022/01/06 01:38:08;;;;;;;3.88;1.77;;;13.30;65.70;;;;;;5032397;28;20057;-72
2022/01/06 01:40:35;;;;;;;5.15;2.15;;;13.20;65.70;;;;;;5031876;28;20060;-72
2022/01/06 01:43:03;;;;;;;4.93;2.08;;;;;;;;;;5032000;28;20148;-71
2022/01/06 01:45:32;;;;;;;3.25;1.80;;;;;;;;;;5031195;28;20133;-72
2022/01/06 01:48:04;;;;;;;3.83;1.92;;;;;;;;;;5047742;28;20053;-72
2022/01/06 01:50:31;;;;;;;3.58;1.73;;;13.20;65.50;;;;;;5051896;28;20053;-72
2022/01/06 01:52:58;;;;;;;4.82;1.90;;;13.40;65.60;;;;;;5051503;28;20131;-72
2022/01/06 01:55:27;;;;;;;2.65;1.75;;;12.10;57.40;;;;;;5051692;28;20049;-72
2022/01/06 01:57:53;;;;;;;3.58;1.80;;;13.50;65.40;;;;;;5050904;28;20049;-72
2022/01/06 02:00:21;;;;;;;4.60;2.10;;;13.30;65.80;;;;;;5051217;28;20132;-72
2022/01/06 02:02:48;;;;;;;5.80;1.98;;;;;;;;;;5050353;28;20080;-72
2022/01/06 02:05:21;;;;;;;5.57;2.35;;;;;;;;;;5032561;28;20562;-72
2022/01/06 02:07:48;;;;;;;5.50;1.80;;;;;;;;;;5031686;28;20060;-72
2022/01/06 02:10:15;;;;;;;4.50;1.70;;;;;;;;;;5031489;28;20049;-72
2022/01/06 02:12:44;;;;;;;3.40;1.60;;;13.10;63.80;;;;;;5031781;28;20056;-72
2022/01/06 02:15:11;;;;;;;3.17;1.60;;;13.30;65.70;;;;;;5032230;28;20049;-72
2022/01/06 02:17:39;;;;;;;3.45;1.85;;;13.40;65.40;;;;;;5031080;28;20049;-72
2022/01/06 02:20:08;;;;;;;2.83;1.60;;;13.40;65.70;;;;;;5031923;28;20132;-72
2022/01/06 02:22:35;;;;;;;4.68;1.98;;;13.10;65.40;;;;;;5030795;28;20055;-72
2022/01/06 02:25:10;;;;;;;3.70;1.67;;;13.40;56.50;;;;;;5030740;28;20132;-72
2022/01/06 02:27:36;;;;;;;3.05;1.63;;;13.30;65.20;;;;;;5030700;28;20495;-72
2022/01/06 02:30:04;;;;;;;4.13;1.65;;;13.60;65.50;;;;;;5031012;28;20128;-72
2022/01/06 02:32:30;;;;;;;4.82;1.80;;;13.40;65.10;;;;;;5031021;28;20096;-72
2022/01/06 02:34:57;;;;;;;4.45;1.80;;;13.70;65.50;;;;;;5031178;28;20087;-72
2022/01/06 02:37:25;;;;;;;4.53;1.88;;;13.50;56.40;;;;;;5036056;28;20057;-72
2022/01/06 02:39:52;;;;;;;4.82;1.77;;;;;;;;;;5052485;28;20104;-72
2022/01/06 02:42:19;;;;;;;3.03;1.40;;;13.60;65.00;;;;;;5051928;28;20067;-72
2022/01/06 02:44:46;;;;;;;3.30;1.65;;;13.60;65.30;;;;;;5049883;28;20136;-72
2022/01/06 02:47:14;;;;;;;3.28;1.70;;;;;;;;;;5051036;28;20168;-72
2022/01/06 02:49:40;;;;;;;3.78;1.60;;;13.00;59.30;;;;;;5051469;28;20048;-72
2022/01/06 02:52:07;;;;;;;3.55;1.60;;;13.00;64.50;;;;;;5050624;28;20131;-72
2022/01/06 02:54:35;;;;;;;4.03;1.60;;;13.40;64.80;;;;;;5050551;28;20141;-72
2022/01/06 02:57:04;;;;;;;3.03;1.50;;;13.30;64.70;;;;;;5050636;28;20144;-72
2022/01/06 02:59:31;;;;;;;3.30;1.40;;;;;;;;;;5051817;28;20132;-72
2022/01/06 03:01:57;;;;;;;4.40;1.50;;;14.50;65.50;;;;;;5050361;28;20055;-72
2022/01/06 03:04:24;;;;;;;3.83;1.70;;;13.70;64.80;;;;;;5041308;28;20132;-72
2022/01/06 03:06:52;;;;;;;2.65;1.50;;;;;;;;;;5030055;28;20133;-72
2022/01/06 03:09:25;;;;;;;2.58;1.30;;;;;;;;;;5030958;28;20068;-72
2022/01/06 03:11:54;;;;;;;4.00;1.42;;;13.70;64.90;;;;;;5034357;28;20049;-72
2022/01/06 03:14:21;;;;;;;3.80;1.55;;;13.80;65.00;;;;;;5034852;28;20076;-72
2022/01/06 03:16:47;;;;;;;3.85;1.50;;;13.70;63.60;;;;;;5034528;28;20060;-72
2022/01/06 03:19:14;;;;;;;3.15;1.23;;;13.80;61.00;;;;;;5034557;28;20057;-72
2022/01/06 03:21:41;;;;;;;2.40;1.30;;;;;;;;;;5046395;28;20638;-72
2022/01/06 03:24:08;;;;;;;3.25;1.48;;;13.20;64.20;;;;;;5054391;28;20366;-72
2022/01/06 03:26:35;;;;;;;2.85;1.40;;;;;;;;;;5054139;28;20135;-72
2022/01/06 03:29:03;;;;;;;2.15;1.25;;;13.80;59.60;;;;;;5050247;28;20132;-72
2022/01/06 03:31:30;;;;;;;4.53;1.60;;;13.50;64.30;;;;;;5034494;28;20141;-72
2022/01/06 03:33:57;;;;;;;2.55;1.10;;;13.80;64.70;;;;;;5034282;28;20136;-72
2022/01/06 03:36:24;;;;;;;1.75;1.13;;;;;;;;;;5034029;28;20558;-72
2022/01/06 03:38:50;;;;;;;2.85;1.33;;;14.30;64.90;;;;;;5035278;28;20470;-72
2022/01/06 03:41:17;;;;;;;2.78;1.20;;;13.80;64.60;;;;;;5035121;28;20054;-72
2022/01/06 03:43:44;;;;;;;2.83;1.50;;;;;;;;;;5034098;28;20084;-72
2022/01/06 03:46:12;;;;;;;2.88;1.27;;;13.90;64.40;;;;;;5033627;28;20133;-72
2022/01/06 03:48:39;;;;;;;1.63;1.00;;;13.60;64.40;;;;;;5034196;28;20570;-72
2022/01/06 03:51:06;;;;;;;2.45;1.20;;;13.90;64.60;;;;;;5034589;28;20140;-72
2022/01/06 03:53:32;;;;;;;3.60;1.35;;;13.70;60.20;;;;;;5034126;28;20131;-72
2022/01/06 03:55:59;;;;;;;2.15;1.20;;;13.50;64.30;;;;;;5034813;28;20132;-72
2022/01/06 03:58:26;;;;;;;1.98;1.23;;;14.20;59.80;;;;;;5033632;28;20133;-72
2022/01/06 04:00:52;;;;;;;2.50;1.52;;;14.00;61.70;;;;;;5033637;28;20144;-72
2022/01/06 04:03:20;;;;;;;2.67;1.23;;;13.40;64.00;;;;;;5033506;28;20132;-72
2022/01/06 04:05:47;;;;;;;1.98;1.10;;;14.10;64.30;;;;;;5034816;28;20049;-72
2022/01/06 04:08:14;;;;;;;1.55;0.90;;;14.00;64.20;;;;;;5033654;28;20142;-72
2022/01/06 04:10:41;;;;;;;3.00;1.20;;;13.50;58.10;;;;;;5033268;28;20144;-72
2022/01/06 04:13:07;;;;;;;2.13;1.00;;;14.10;58.90;;;;;;5049139;28;20144;-72
2022/01/06 04:15:34;;;;;;;2.47;1.20;;;13.40;63.80;;;;;;5053487;28;20091;-72
2022/01/06 04:18:01;;;;;;;1.60;1.10;;;14.10;63.10;;;;;;5053549;28;20128;-72
2022/01/06 04:20:29;;;;;;;1.60;0.93;;;13.90;64.10;;;;;;5054163;28;20128;-72
2022/01/06 04:22:56;;;;;;;2.05;1.20;;;14.10;64.40;;;;;;5052467;28;20051;-72
2022/01/06 04:25:23;;;;;;;1.80;1.00;;;;;;;;;;5053170;28;20621;-72
2022/01/06 04:27:49;;;;;;;1.95;1.10;;;14.10;64.40;;;;;;5053045;28;20135;-72
2022/01/06 04:30:16;;;;;;;1.63;1.10;;;13.70;64.00;;;;;;5033974;28;20136;-72
2022/01/06 04:32:43;;;;;;;2.55;1.08;;;;;;;;;;5032980;28;20145;-72
2022/01/06 04:35:10;;;;;;;1.52;1.00;;;14.10;58.50;;;;;;5033112;28;20140;-72
2022/01/06 04:37:39;;;;;;;1.58;0.98;;;14.10;59.10;;;;;;5032770;28;20053;-72
2022/01/06 04:40:06;;;;;;;2.63;1.20;;;13.90;57.90;;;;;;5033189;28;20152;-72
2022/01/06 04:42:34;;;;;;;1.63;1.15;;;;;;;;;;5032756;28;20049;-72
2022/01/06 04:45:01;;;;;;;2.13;1.13;;;;;;;;;;5032919;28;20475;-72
2022/01/06 04:47:28;;;;;;;1.17;0.82;;;;;;;;;;5052618;28;20145;-72
2022/01/06 04:49:54;;;;;;;2.65;1.00;;;14.00;64.20;;;;;;5054024;28;20125;-72
2022/01/06 04:52:21;;;;;;;3.25;1.20;;;14.10;64.00;;;;;;5052711;28;20132;-72
2022/01/06 04:54:49;;;;;;;1.75;1.02;;;13.70;58.20;;;;;;5052857;28;20143;-72
2022/01/06 04:57:17;;;;;;;2.25;1.17;;;13.80;57.80;;;;;;5052317;28;20136;-72
2022/01/06 04:59:44;;;;;;;2.70;1.10;;;;;;;;;;5053400;28;21421;-72
2022/01/06 05:02:11;;;;;;;1.83;0.95;;;;;;;;;;5052002;28;20075;-72
2022/01/06 05:04:38;;;;;;;2.08;1.00;;;;;;;;;;5052394;28;20128;-72
2022/01/06 05:07:05;;;;;;;1.25;1.00;;;;;;;;;;5053433;28;20055;-72
2022/01/06 05:09:32;;;;;;;1.95;1.00;;;;;;;;;;5052550;28;20135;-72
2022/01/06 05:12:00;;;;;;;3.78;1.35;;;14.10;64.20;;;;;;5052493;28;20136;-72
2022/01/06 05:14:27;;;;;;;1.80;1.00;;;13.60;63.80;;;;;;5052402;28;20128;-73
2022/01/06 05:16:55;;;;;;;2.40;1.00;;;;;;;;;;5051928;28;20140;-72
2022/01/06 05:19:23;;;;;;;1.85;1.20;;;;;;;;;;5050789;28;20056;-72
2022/01/06 05:21:51;;;;;;;2.90;1.00;;;14.10;56.20;;;;;;5051807;28;20049;-72
2022/01/06 05:24:18;;;;;;;2.58;1.30;;;14.10;64.10;;;;;;5051749;28;20045;-73
2022/01/06 05:26:45;;;;;;;1.52;1.08;;;13.70;63.40;;;;;;5053208;28;20048;-72
2022/01/06 05:29:13;;;;;;;1.92;1.00;;;14.10;55.30;;;;;;5051870;28;20471;-72
2022/01/06 05:31:40;;;;;;;3.08;1.13;;;13.70;55.10;;;;;;5052814;28;20051;-72
2022/01/06 05:34:07;;;;;;;3.17;1.30;;;14.20;62.90;;;;;;5051945;28;20131;-72
2022/01/06 05:36:34;;;;;;;1.85;1.08;;;14.10;63.80;;;;;;5041959;28;20083;-73
2022/01/06 05:39:00;;;;;;;2.05;0.98;;;14.20;64.00;;;;;;5031917;28;20475;-72
2022/01/06 05:41:27;;;;;;;1.50;1.00;;;14.10;56.80;;;;;;5031981;28;20160;-73
2022/01/06 05:43:54;;;;;;;1.27;0.95;;;14.30;61.70;;;;;;5031328;28;20080;-72
2022/01/06 05:46:22;;;;;;;1.90;1.02;;;14.40;58.80;;;;;;5031740;28;20081;-72
2022/01/06 05:48:49;;;;;;;2.30;1.13;;;14.20;55.80;;;;;;5031585;28;20059;-72
2022/01/06 05:51:16;;;;;;;1.88;1.08;;;14.00;63.70;;;;;;5031662;28;20152;-72
2022/01/06 05:53:43;;;;;;;2.03;1.00;;;;;;;;;;5034250;28;20136;-72
2022/01/06 05:56:10;;;;;;;2.33;1.13;;;14.00;63.80;;;;;;5045279;28;20111;-72
2022/01/06 05:58:39;;;;;;;2.47;1.08;;;14.10;55.20;;;;;;5051475;28;20055;-72
2022/01/06 06:01:06;;;;;;;2.25;1.00;;;;;;;;;;5051420;28;20524;-72
2022/01/06 06:03:35;;;;;;;3.08;1.10;;;14.20;55.20;;;;;;5051132;28;20083;-72
2022/01/06 06:06:02;;;;;;;2.65;1.30;;;;;;;;;;5050860;28;20128;-72
2022/01/06 06:08:29;;;;;;;2.58;1.20;;;14.20;55.20;;;;;;5050934;28;20055;-73
2022/01/06 06:10:56;;;;;;;2.63;1.00;;;;;;;;;;5049554;28;20139;-73
2022/01/06 06:13:23;;;;;;;2.58;1.00;;;14.30;63.90;;;;;;5052368;28;20406;-73
2022/01/06 06:15:50;;;;;;;2.47;1.27;;;;;;;;;;5051321;28;20514;-72
2022/01/06 06:18:16;;;;;;;2.00;0.90;;;14.20;63.60;;;;;;5052364;28;20466;-73
2022/01/06 06:20:44;;;;;;;3.00;1.20;;;13.60;55.50;;;;;;5051237;28;20077;-73
2022/01/06 06:23:12;;;;;;;2.75;1.00;;;;;;;;;;5051112;28;20063;-73
2022/01/06 06:25:38;;;;;;;2.33;0.93;;;14.30;62.80;;;;;;5050842;28;20056;-73
2022/01/06 06:28:05;;;;;;;2.03;1.00;;;14.20;63.80;;;;;;5049580;28;20139;-73
2022/01/06 06:30:32;;;;;;;2.20;1.10;;;;;;;;;;5050725;28;20132;-72
2022/01/06 06:33:00;;;;;;;3.38;1.00;;;14.70;63.90;;;;;;5050815;28;20059;-73
2022/01/06 06:35:27;;;;;;;2.78;1.10;;;13.50;63.20;;;;;;5050848;28;20490;-72
2022/01/06 06:37:55;;;;;;;4.18;1.20;;;13.90;63.50;;;;;;5052359;28;20220;-72
2022/01/06 06:40:23;;;;;;;2.97;1.00;;;13.80;63.60;;;;;;5050812;28;20057;-72
2022/01/06 06:42:50;;;;;;;4.28;1.42;;;14.30;64.00;;;;;;5050670;28;20056;-72
2022/01/06 06:45:17;;;;;;;1.38;1.00;;;;;;;;;;5048506;28;20136;-72
2022/01/06 06:47:44;;;;;;;1.70;0.93;;;13.50;63.30;;;;;;5050320;28;20132;-72
2022/01/06 06:50:12;;;;;;;1.60;0.82;;;;;;;;;;5050330;28;20053;-72
2022/01/06 06:52:39;;;;;;;2.65;1.00;;;13.80;59.90;;;;;;5050278;28;20102;-72
2022/01/06 06:55:08;;;;;;;2.63;1.20;;;14.20;55.00;;;;;;5050752;28;20132;-72
2022/01/06 06:57:35;;;;;;;1.52;1.08;;;;;;;;;;5050254;28;20055;-72
2022/01/06 07:00:04;;;;;;;3.40;1.20;;;14.20;63.80;;;;;;5050391;28;20053;-72
2022/01/06 07:02:31;;;;;;;1.90;0.85;;;13.60;63.40;;;;;;5031748;28;20103;-72
2022/01/06 07:04:58;;;;;;;2.55;1.00;;;;;;;;;;5030434;28;20092;-72
2022/01/06 07:07:25;;;;;;;1.75;0.90;;;;;;;;;;5030615;28;20461;-72
2022/01/06 07:09:51;;;;;;;2.28;1.20;;;14.20;61.80;;;;;;5030350;28;20141;-72
2022/01/06 07:12:20;;;;;;;2.30;1.00;;;14.10;63.70;;;;;;5030655;28;20053;-72
2022/01/06 07:14:47;;;;;;;3.60;1.20;;;;;;;;;;5030564;28;20164;-72
2022/01/06 07:17:14;;;;;;;3.42;1.23;;;;;;;;;;5031506;28;20136;-72
2022/01/06 07:19:40;;;;;;;2.55;1.05;;;14.20;63.80;;;;;;5030327;28;20550;-71
2022/01/06 07:22:07;;;;;;;2.58;1.13;;;;;;;;;;5048697;28;20158;-74
2022/01/06 07:24:36;;;;;;;3.17;1.05;;;14.20;63.50;;;;;;5050577;28;20077;-73
2022/01/06 07:27:03;;;;;;;2.58;1.35;;;13.80;63.60;;;;;;5050259;28;20110;-73
2022/01/06 07:29:31;;;;;;;3.47;1.02;;;14.20;63.60;;;;;;5050378;28;20128;-73
2022/01/06 07:31:58;;;;;;;2.50;1.23;;;14.10;63.70;;;;;;5050310;28;20128;-73
2022/01/06 07:34:25;;;;;;;4.13;1.50;;;;;;;;;;5048656;28;20079;-73
2022/01/06 07:36:52;;;;;;;3.83;1.30;;;14.30;58.10;;;;;;5050155;28;20136;-73
2022/01/06 07:39:19;;;;;;;2.03;0.98;;;14.30;63.80;;;;;;5050475;28;20061;-73
2022/01/06 07:41:45;;;;;;;2.95;1.05;;;14.30;64.00;;;;;;5050320;28;20131;-72
2022/01/06 07:44:15;;;;;;;2.85;1.30;;;14.20;57.50;;;;;;5049362;28;20123;-73
2022/01/06 07:46:45;;;;;;;3.33;1.10;;;14.00;59.20;;;;;;5049500;28;20467;-73
2022/01/06 07:49:12;;;;;;;4.63;1.00;;;;;;;;;;5049163;28;20049;-73
2022/01/06 07:51:39;;;;;;;4.00;1.30;;;14.40;63.60;;;;;;5049060;28;20137;-73
2022/01/06 07:54:06;;;;;;;4.70;1.65;;;14.40;63.90;;;;;;5050240;28;20087;-73
2022/01/06 07:56:33;;;;;;;5.63;1.30;;;;;;;;;;5050951;28;20140;-73
2022/01/06 07:59:00;;;;;;;2.33;1.08;;;14.50;63.80;;;;;;5053942;28;20057;-73
2022/01/06 08:01:27;;;;;;;2.45;1.10;;;;;;;;;;5053406;28;20132;-73
2022/01/06 08:03:55;;;;;;;3.42;1.20;;;13.80;63.10;;;;;;5053617;28;20128;-74
2022/01/06 08:06:21;;;;;;;3.50;1.67;;;15.20;63.90;;;;;;5053284;28;20061;-73
2022/01/06 08:08:49;;;;;;;2.20;1.10;;;;;;;;;;5052283;28;20906;-73
2022/01/06 08:11:15;;;;;;;2.10;1.08;;;14.50;63.80;;;;;;5040370;28;20227;-73
2022/01/06 08:13:42;;;;;;;2.67;1.08;;;14.30;63.60;;;;;;5053308;28;20569;-73
2022/01/06 08:16:09;;;;;;;2.33;1.20;;;14.10;56.90;;;;;;5053288;28;20445;-73
2022/01/06 08:18:36;;;;;;;2.83;1.20;;;;;;;;;;5053668;28;20135;-73
2022/01/06 08:21:04;;;;;;;3.85;1.10;;;14.40;54.80;;;;;;5053268;28;20055;-73
2022/01/06 08:23:31;;;;;;;2.80;1.05;;;;;;;;;;5052461;28;20137;-73
2022/01/06 08:25:58;;;;;;;2.97;0.98;;;;;;;;;;5052472;28;20136;-74
2022/01/06 08:28:25;;;;;;;2.72;1.40;;;;;;;;;;5052284;28;20045;-74
2022/01/06 08:30:53;;;;;;;2.22;1.30;;;14.50;63.50;;;;;;5052107;28;20128;-73
2022/01/06 08:33:19;;;;;;;3.33;1.20;;;13.90;57.10;;;;;;5052770;28;20091;-74
2022/01/06 08:35:47;;;;;;;2.88;1.10;;;;;;;;;;5052594;28;20115;-74
2022/01/06 08:38:15;;;;;;;2.13;1.20;;;14.00;58.10;;;;;;5052760;28;20096;-74
2022/01/06 08:40:42;;;;;;;4.07;1.52;;;13.90;60.30;;;;;;5052586;28;20478;-74
2022/01/06 08:43:09;;;;;;;2.15;1.20;;;;;;;;;;5049846;28;20083;-74
2022/01/06 08:45:36;;;;;;;2.58;1.40;;;;;;;;;;5052229;28;20577;-74
2022/01/06 08:48:03;;;;;;;3.60;1.48;;;15.10;63.80;;;;;;5051603;28;20135;-74
2022/01/06 08:50:30;;;;;;;3.05;1.50;;;;;;;;;;5049846;28;20144;-74
2022/01/06 08:52:57;;;;;;;2.47;1.20;;;14.50;63.30;;;;;;5045260;28;21594;-74
2022/01/06 08:55:26;;;;;;;3.67;1.50;;;14.40;54.50;;;;;;5043102;28;20092;-74
2022/01/06 08:57:53;;;;;;;2.95;1.17;;;14.50;63.10;;;;;;5052934;28;20135;-74
2022/01/06 09:00:20;;;;;;;2.20;1.10;;;;;;;;;;5051183;28;20053;-74
2022/01/06 09:02:47;;;;;;;3.35;1.38;;;14.50;63.30;;;;;;5051334;28;20049;-74
2022/01/06 09:05:15;;;;;;;2.85;1.05;;;;;;;;;;5051065;28;20131;-74
2022/01/06 09:07:42;;;;;;;2.92;1.08;;;;;;;;;;5051408;28;20041;-73
2022/01/06 09:10:10;;;;;;;3.20;1.30;;;14.50;63.10;;;;;;5051762;28;20136;-73
2022/01/06 09:12:38;;;;;;;3.30;1.10;;;14.40;56.00;;;;;;5051476;28;20080;-72
2022/01/06 09:15:06;;;;;;;3.28;1.30;;;14.40;54.40;;;;;;5051396;28;20059;-73
2022/01/06 09:17:35;;;;;;;7.13;1.65;;;;;;;;;;5050706;28;20083;-73
2022/01/06 09:20:02;;;;;;;3.25;1.15;;;14.60;63.40;;;;;;5051840;28;20127;-73
2022/01/06 09:22:29;;;;;;;2.60;1.27;;;;;;;;;;5051138;28;20057;-73
2022/01/06 09:24:56;;;;;;;2.40;1.20;;;;;;;;;;5051192;28;20554;-73
2022/01/06 09:27:23;;;;;;;3.33;1.20;;;;;;;;;;5050744;28;20102;-73
2022/01/06 09:29:52;;;;;;;2.13;1.20;;;14.50;63.20;;;;;;5051565;28;20049;-73
2022/01/06 09:32:19;;;;;;;2.00;1.00;;;14.00;54.80;;;;;;5050874;28;20056;-73
2022/01/06 09:34:46;;;;;;;2.65;1.35;;;14.40;63.30;;;;;;5052051;28;20132;-73
2022/01/06 09:37:14;;;;;;;2.92;1.05;;;;;;;;;;5051935;28;20047;-73
2022/01/06 09:39:41;;;;;;;2.25;1.10;;;14.40;63.40;;;;;;5051904;28;20079;-73
2022/01/06 09:42:08;;;;;;;3.70;1.20;;;14.50;63.20;;;;;;5050712;28;20132;-73
2022/01/06 09:44:35;;;;;;;2.97;1.15;;;;;;;;;;5051087;28;20129;-73
2022/01/06 09:47:04;;;;;;;2.78;1.10;;;14.50;63.10;;;;;;5049505;28;20140;-73
2022/01/06 09:49:31;;;;;;;3.85;1.40;;;13.90;63.00;;;;;;5051008;28;20191;-73
2022/01/06 09:51:58;;;;;;;2.20;1.13;;;14.50;62.90;;;;;;5051140;28;20084;-73
2022/01/06 09:54:25;;;;;;;2.40;0.90;;;;;;;;;;5047119;28;20131;-73
2022/01/06 09:56:52;;;;;;;1.80;1.00;;;;;;;;;;5050435;28;20175;-73
2022/01/06 09:59:18;;;;;;;2.28;1.10;;;13.70;62.80;;;;;;5051099;28;20055;-73
2022/01/06 10:01:46;;;;;;;2.67;1.42;;;;;;;;;;5050703;28;20091;-73
2022/01/06 10:04:24;;;;;;;2.85;1.30;;;14.00;62.80;;;;;;5051069;28;20506;-73
2022/01/06 10:06:58;;;;;;;3.42;1.23;;;14.40;54.50;;;;;;5050165;28;20061;-74
2022/01/06 10:09:25;;;;;;;3.15;1.30;;;14.80;63.50;;;;;;5051148;28;20144;-74
2022/01/06 10:11:55;;;;;;;1.58;1.13;;;14.60;61.30;;;;;;5049772;28;20053;-74
2022/01/06 10:14:30;;;;;;;2.90;1.30;;;14.60;63.10;;;;;;5051116;28;20091;-73
2022/01/06 10:16:57;;;;;;;2.05;1.15;;;14.40;63.00;;;;;;5048828;28;20057;-73
2022/01/06 10:19:25;;;;;;;1.88;1.10;;;14.10;55.20;;;;;;5050450;28;20057;-73
2022/01/06 10:21:57;;;;;;;2.75;1.10;;;14.60;58.50;;;;;;5050598;28;20481;-73
2022/01/06 10:24:24;;;;;;;3.47;1.30;;;14.50;63.10;;;;;;5050650;28;20052;-73
2022/01/06 10:26:52;;;;;;;1.85;1.00;;;15.10;63.30;;;;;;5050579;28;20057;-73
2022/01/06 10:29:19;;;;;;;2.08;1.17;;;14.40;58.40;;;;;;5050649;28;20538;-73
2022/01/06 10:31:46;;;;;;;2.40;1.10;;;14.50;63.30;;;;;;5050753;28;20410;-73
2022/01/06 10:34:13;;;;;;;2.67;1.27;;;;;;;;;;5050682;28;20075;-73
2022/01/06 10:36:41;;;;;;;2.58;1.10;;;14.00;62.70;;;;;;5050625;28;20059;-73
2022/01/06 10:39:08;;;;;;;4.40;1.38;;;14.50;62.90;;;;;;5050415;28;20077;-73
2022/01/06 10:41:36;;;;;;;2.67;1.13;;;13.80;62.20;;;;;;5049455;28;20140;-73
2022/01/06 10:44:03;;;;;;;2.55;1.30;;;;;;;;;;5050266;28;20088;-73
2022/01/06 10:46:31;;;;;;;3.33;1.40;;;15.30;63.50;;;;;;5050283;28;20504;-73
2022/01/06 10:48:58;;;;;;;4.60;1.92;;;14.40;63.10;;;;;;5034223;28;20072;-71
2022/01/06 10:51:42;;;;;;;3.38;1.63;;;14.60;55.70;;;;;;5049984;28;20055;-73
2022/01/06 10:54:15;;;;;;;7.10;1.83;;;14.60;60.20;;;;;;5042020;28;20148;-74
2022/01/06 10:56:42;;;;;;;3.50;1.70;;;;;;;;;;5047971;28;20041;-73
2022/01/06 10:59:09;;;;;;;4.22;1.58;;;14.60;63.10;;;;;;5050067;28;20132;-73
2022/01/06 11:01:36;;;;;;;4.10;1.70;;;;;;;;;;5050511;28;20581;-72
2022/01/06 11:04:03;;;;;;;4.07;1.77;;;14.50;63.20;;;;;;5050502;28;20132;-74
2022/01/06 11:06:30;;;;;;;3.97;1.60;;;14.60;63.20;;;;;;5050478;28;20135;-72
2022/01/06 11:08:58;;;;;;;4.90;1.55;;;14.50;63.10;;;;;;5050301;28;20139;-73
2022/01/06 11:11:43;;;;;;;4.03;1.80;;;14.40;63.00;;;;;;5050013;28;20049;-74
2022/01/06 11:14:15;;;;;;;5.68;1.52;;;14.70;62.90;;;;;;5049958;28;20064;-73
2022/01/06 11:16:43;;;;;;;3.85;1.90;;;14.60;54.30;;;;;;5050593;28;20079;-74
2022/01/06 11:19:11;;;;;;;3.25;1.65;;;;;;;;;;5050810;28;20056;-74
2022/01/06 11:21:40;;;;;;;4.78;1.90;;;15.50;56.40;;;;;;5050282;28;20048;-73
2022/01/06 11:24:12;;;;;;;3.15;1.45;;;14.60;63.00;;;;;;5050486;28;20132;-73
2022/01/06 11:26:39;;;;;;;5.00;1.80;;;;;;;;;;5049558;28;20091;-73
2022/01/06 11:29:06;;;;;;;3.33;1.48;;;14.60;62.80;;;;;;5050541;28;20454;-74
2022/01/06 11:31:37;;;;;;;3.72;1.58;;;13.90;62.50;;;;;;5052494;28;20095;-74
2022/01/06 11:34:11;;;;;;;5.90;1.45;;;14.30;54.60;;;;;;5054210;28;20135;-74
2022/01/06 11:36:38;;;;;;;4.70;1.60;;;15.10;60.10;;;;;;5054044;28;20099;-74
2022/01/06 11:39:07;;;;;;;3.33;1.48;;;13.70;62.40;;;;;;5054119;28;20128;-74
2022/01/06 11:41:36;;;;;;;3.95;1.85;;;14.70;54.20;;;;;;5051831;28;20085;-73
2022/01/06 11:44:05;;;;;;;3.40;1.63;;;14.70;62.90;;;;;;5052762;28;20044;-74
2022/01/06 11:46:41;;;;;;;3.35;1.60;;;14.70;54.20;;;;;;5053796;28;20049;-73
2022/01/06 11:49:08;;;;;;;3.22;1.42;;;14.60;62.80;;;;;;5053889;28;20057;-73
2022/01/06 11:51:36;;;;;;;3.00;1.58;;;14.70;54.20;;;;;;5053923;28;20139;-73
2022/01/06 11:54:12;;;;;;;3.30;1.40;;;13.90;62.50;;;;;;5054138;28;20140;-73
2022/01/06 11:56:46;;;;;;;2.35;1.27;;;13.90;62.30;;;;;;5053290;28;20144;-73
2022/01/06 11:59:13;;;;;;;2.95;1.27;;;;;;;;;;5053181;28;20509;-73
2022/01/06 12:01:47;;;;;;;3.17;1.50;;;14.90;63.00;;;;;;5053597;28;20484;-73
2022/01/06 12:04:17;;;;;;;3.08;1.50;;;14.60;62.90;;;;;;5053391;28;20124;-73
2022/01/06 12:06:44;;;;;;;2.92;1.52;;;13.90;62.50;;;;;;5052201;28;20132;-73
2022/01/06 12:09:19;;;;;;;4.10;1.38;;;13.90;57.30;;;;;;5052663;28;20148;-73
2022/01/06 12:11:47;;;;;;;3.35;1.40;;;14.60;63.60;;;;;;5051521;28;20486;-73
2022/01/06 12:14:23;;;;;;;3.42;1.60;;;14.50;63.10;;;;;;5052869;28;20443;-73
2022/01/06 12:16:50;;;;;;;2.63;1.30;;;13.80;62.70;;;;;;5051765;28;20059;-73
2022/01/06 12:19:18;;;;;;;4.68;1.70;;;14.40;54.60;;;;;;5067930;28;20148;-73
2022/01/06 12:21:45;;;;;;;4.38;1.50;;;;;;;;;;5052823;28;20077;-73
2022/01/06 12:24:12;;;;;;;3.85;1.63;;;14.50;63.30;;;;;;5052956;28;20128;-73
2022/01/06 12:26:41;;;;;;;2.80;1.48;;;14.40;63.40;;;;;;5051241;28;20569;-73
2022/01/06 12:29:14;;;;;;;2.70;1.42;;;13.70;62.40;;;;;;5050950;28;20080;-73
2022/01/06 12:31:42;;;;;;;3.88;1.40;;;14.20;63.20;;;;;;5053333;28;20099;-75
2022/01/06 12:34:10;;;;;;;2.83;1.42;;;14.30;63.40;;;;;;5053260;28;20049;-76
2022/01/06 12:36:38;;;;;;;3.33;1.55;;;14.20;63.40;;;;;;5052404;28;20486;-77
2022/01/06 12:39:09;;;;;;;3.28;1.40;;;14.30;63.20;;;;;;5053002;28;20057;-74
2022/01/06 12:41:36;;;;;;;4.78;1.60;;;;;;;;;;5051821;28;20585;-74
2022/01/06 12:44:03;;;;;;;3.15;1.50;;;13.60;63.00;;;;;;5052647;28;20155;-74
2022/01/06 12:46:35;;;;;;;4.05;1.60;;;13.50;62.90;;;;;;5052296;28;20122;-74
2022/01/06 12:49:04;;;;;;;4.93;1.70;;;;;;;;;;5052649;28;20115;-72
2022/01/06 12:51:31;;;;;;;4.22;1.50;;;14.20;63.60;;;;;;5050882;28;20270;-73
2022/01/06 12:54:02;;;;;;;6.18;1.83;;;14.10;54.90;;;;;;5050730;28;20139;-75
2022/01/06 12:56:30;;;;;;;2.63;1.30;;;14.10;55.00;;;;;;5042449;28;20053;-73
2022/01/06 12:58:57;;;;;;;3.28;1.60;;;14.00;59.40;;;;;;5049694;28;20084;-73
2022/01/06 13:01:24;;;;;;;3.55;1.70;;;;;;;;;;5049627;28;20136;-71
2022/01/06 13:03:54;;;;;;;3.70;1.50;;;14.40;55.90;;;;;;5053304;28;20123;-72
2022/01/06 13:06:21;;;;;;;3.13;1.40;;;13.80;58.20;;;;;;5050970;28;20061;-72
2022/01/06 13:08:50;;;;;;;3.08;1.50;;;14.00;63.60;;;;;;5052033;28;20132;-71
2022/01/06 13:11:17;;;;;;;3.63;1.33;;;;;;;;;;5051644;28;20144;-71
2022/01/06 13:13:46;;;;;;;3.95;1.55;;;13.80;63.70;;;;;;5039275;28;20152;-71
2022/01/06 13:16:17;;;;;;;5.35;1.63;;;13.90;58.70;;;;;;5052268;28;20071;-72
2022/01/06 13:18:59;;;;;;;4.13;1.50;;;13.80;63.80;;;;;;5047950;28;20129;-72
2022/01/06 13:21:32;;;;;;;3.75;1.50;;;13.90;63.70;;;;;;5051251;28;20045;-72
2022/01/06 13:24:13;;;;;;;4.50;1.40;;;13.80;55.20;;;;;;5050730;28;20053;-72